Issaquah, WA

10:57 PM PDT on June 02, 2015 (GMT -0700)
Horizon Crest | | Change Station
CLOSE
Current Station
Personal Weather Station
Location: Bellevue, WA
Elevation: 1000 ft
Nearby Weather Stations

Elev 1000 ft 47.56 °N, 122.13 °W | Updated 7 minutes ago

Overcast
Overcast
55.0 °F
Feels Like 55.0 °F
N
0.0
Wind Variable Wind from South
Gusts 13.0 mph

Today
High -- | Low -- °F
--% Chance of Precip.
Yesterday
High -- | Low -- °F
Precip. -- in
5:14 AM 8:59 PM
Full, 100% visible
Pressure 30.09 in
Visibility 10.0 miles
Clouds Overcast 3200 ft
Dew Point 51 °F
Humidity 87%
Rainfall 0.00 in
Snow Depth Not available.
UV 0 out of 12
Pollen 2.70 out of 12
Air Quality Not available.
Flu Activity Sporadic
METAR KRNT 030453Z AUTO 17007KT 10SM OVC032 15/09 A3007 RMK AO2 SLP187 T01500094

More Conditions Fewer Conditions

Pressure 30.09 in
Visibility 10.0 miles
Clouds Overcast 3200 ft
Dew Point 51 °F
Humidity 87%
Rainfall 0.00 in
Snow Depth Not available.
UV 0 out of 12
Pollen 2.70 out of 12
Air Quality Not available.
Flu Activity Sporadic
METAR KRNT 030453Z AUTO 17007KT 10SM OVC032 15/09 A3007 RMK AO2 SLP187 T01500094

More Conditions Fewer Conditions

10-Day Weather Forecast

×

Almanac

Astronomy

Jun. 02, 2015 Rise Set
Actual Time
Civil Twilight
Nautical Twilight
Astronomical Twilight
Moon
Length of Visible Light
Length of Day
Tomorrow will be .
, % of the Moon is Illuminated

Today's Extremes

State Highs State Lows

Community

WunderPhotos

Upload Photos

1,826,177 photos uploaded!

WunderBlogs® & News

Nearby

Air Quality

  Air Quality AQ Index Pollutant
Not available.

Snow Depth

Station Depth Elevation

Earthquake Activity

City Distance Mag. Time & Date
Minimum magnitude displayed is 2.5.

Coastal Water Temperatures

Place Temperature

Stations

Nearby Weather Stations

Station Location Temp. Windchill Dew Point Humidity Wind Precip. Elev Updated Type